Grand Rapids, MI (49506)

5:29 PM EDT on August 29, 2015 (GMT -0400)
Fisk Lake | | Change Station
CLOSE
Current Station
Personal Weather Station
Location: Grand Rapids, MI
Elevation: 741 ft
Nearby Weather Stations

Elev 741 ft 42.95 °N, 85.62 °W | Updated 50 seconds ago

Overcast
Overcast
65.8 °F
Feels Like 65.8 °F
N
0.0
Wind Variable Wind from ENE
Gusts 3.0 mph

Today
High -- | Low -- °F
--% Chance of Precip.
Yesterday
High -- | Low -- °F
Precip. -- in
7:03 AM 8:22 PM
Full, 100% visible
Pressure 30.06 in
Visibility 8.0 miles
Clouds Few 700 ft
Mostly Cloudy 4900 ft
Overcast 7000 ft
Dew Point 64 °F
Humidity 94%
Rainfall 0.23 in
Snow Depth Not available.
UV 1 out of 12
Pollen 7.60 out of 12
Air Quality Not available.
Flu Activity Not available.
METAR KGRR 292053Z 10007KT 8SM FEW007 BKN049 OVC070 19/18 A3006 RMK AO2 SLP178 60001 T01940183 58010
Pressure 30.06 in
Visibility 8.0 miles
Clouds Few 700 ft
Mostly Cloudy 4900 ft
Overcast 7000 ft
Dew Point 64 °F
Humidity 94%
Rainfall 0.23 in
Snow Depth Not available.
UV 1 out of 12
Pollen 7.60 out of 12
Air Quality Not available.
Flu Activity Not available.
METAR KGRR 292053Z 10007KT 8SM FEW007 BKN049 OVC070 19/18 A3006 RMK AO2 SLP178 60001 T01940183 58010

10-Day Weather Forecast

×

Almanac

Astronomy

Aug. 29, 2015 Rise Set
Actual Time
Civil Twilight
Nautical Twilight
Astronomical Twilight
Moon
Length of Visible Light
Length of Day
Tomorrow will be .
, % of the Moon is Illuminated

Today's Extremes

State Highs State Lows

Community

WunderPhotos

Upload Photos

1,850,805 photos uploaded!

WunderBlogs® & News

Nearby

Air Quality

  Air Quality AQ Index Pollutant
Not available.

Snow Depth

Station Depth Elevation

Earthquake Activity

City Distance Mag. Time & Date
Minimum magnitude displayed is 2.5.

Coastal Water Temperatures

Place Temperature

Stations

Nearby Weather Stations

Station Location Temp. Windchill Dew Point Humidity Wind Precip. Elev Updated Type